createdAt,value
2017-09-16T00:04:13.906Z,7.87
2017-09-16T00:09:17.116Z,7.57
2017-09-16T00:14:20.298Z,7.33
2017-09-16T00:19:23.526Z,10.13
2017-09-16T00:24:26.727Z,7.10
2017-09-16T00:29:29.936Z,11.80
2017-09-16T00:34:33.116Z,6.40
2017-09-16T00:39:36.325Z,8.90
2017-09-16T00:44:39.534Z,6.57
2017-09-16T00:54:52.202Z,6.90
2017-09-16T00:59:55.447Z,7.57
2017-09-16T01:04:58.619Z,9.50
2017-09-16T01:10:01.862Z,6.90
2017-09-16T01:15:05.067Z,7.63
2017-09-16T01:20:08.269Z,6.80
2017-09-16T01:25:11.464Z,6.47
2017-09-16T01:30:14.684Z,9.53
2017-09-16T01:35:17.881Z,6.80
2017-09-16T01:40:21.059Z,6.90
2017-09-16T01:45:24.257Z,5.43
2017-09-16T01:50:27.478Z,9.97
2017-09-16T01:55:30.685Z,7.27
2017-09-16T02:00:34.015Z,4.72
2017-09-16T02:05:37.257Z,7.70
2017-09-16T02:10:41.231Z,8.38
2017-09-16T02:15:44.436Z,7.20
2017-09-16T02:20:47.665Z,7.93
2017-09-16T02:25:50.874Z,5.40
2017-09-16T02:30:54.075Z,8.90
2017-09-16T02:35:57.314Z,8.90
2017-09-16T02:41:01.275Z,10.50
2017-09-16T02:46:04.469Z,8.80
2017-09-16T02:51:07.756Z,33.83
2017-09-16T02:56:11.759Z,37.80
2017-09-16T03:01:15.004Z,32.70
2017-09-16T03:06:18.228Z,18.63
2017-09-16T03:11:21.451Z,15.20
2017-09-16T03:16:24.648Z,7.60
2017-09-16T03:21:27.914Z,5.50
2017-09-16T03:26:31.886Z,9.60
2017-09-16T03:31:35.091Z,10.47
2017-09-16T03:36:38.441Z,8.37
2017-09-16T03:41:42.407Z,12.00
2017-09-16T03:46:45.625Z,9.17
2017-09-16T03:51:48.808Z,7.60
2017-09-16T03:56:52.029Z,9.83
2017-09-16T04:18:05.536Z,9.93
2017-09-16T04:23:08.727Z,7.70
2017-09-16T04:28:11.917Z,5.30
2017-09-16T04:33:15.096Z,6.27
2017-09-16T04:38:18.285Z,7.47
2017-09-16T04:43:21.540Z,6.50
2017-09-16T04:48:24.746Z,10.07
2017-09-16T04:53:27.956Z,41.17
2017-09-16T04:58:31.172Z,27.60
2017-09-16T05:03:34.383Z,11.73
2017-09-16T05:08:37.579Z,8.30
2017-09-16T05:13:40.775Z,9.00
2017-09-16T05:18:43.958Z,5.53
2017-09-16T05:23:47.176Z,6.30
2017-09-16T05:28:50.363Z,8.73
2017-09-16T05:33:53.552Z,6.20
2017-09-16T05:38:57.508Z,5.63
2017-09-16T05:44:00.704Z,8.90
2017-09-16T05:49:03.893Z,4.80
2017-09-16T05:54:07.089Z,17.57
2017-09-16T05:59:11.073Z,51.93
2017-09-16T06:04:14.283Z,39.63
2017-09-16T06:09:17.498Z,17.67
2017-09-16T06:14:20.702Z,25.33
2017-09-16T06:19:23.924Z,31.37
2017-09-16T06:24:27.133Z,16.83
2017-09-16T06:29:30.354Z,14.00
2017-09-16T06:34:34.330Z,28.50
2017-09-16T06:39:37.534Z,32.30
2017-09-16T06:44:40.744Z,24.90
2017-09-16T06:49:43.946Z,16.70
2017-09-16T06:54:47.148Z,18.90
2017-09-16T06:59:50.351Z,25.53
2017-09-16T07:04:53.542Z,24.43
2017-09-16T07:09:57.026Z,24.17
2017-09-16T07:15:01.014Z,26.10
2017-09-16T07:20:04.246Z,19.23
2017-09-16T07:25:07.541Z,13.17
2017-09-16T07:30:10.752Z,15.63
2017-09-16T07:35:14.026Z,13.63
2017-09-16T07:40:17.257Z,13.63
2017-09-16T07:45:20.472Z,12.43
2017-09-16T07:50:23.678Z,14.53
2017-09-16T07:55:28.783Z,18.73
2017-09-16T08:00:32.176Z,15.43
2017-09-16T08:05:36.288Z,19.63
2017-09-16T08:10:39.517Z,13.90
2017-09-16T08:15:43.494Z,15.83
2017-09-16T08:20:46.701Z,15.40
2017-09-16T08:25:49.933Z,11.30
2017-09-16T08:30:53.161Z,15.03
2017-09-16T08:35:56.461Z,16.37
2017-09-16T08:41:00.457Z,25.63
2017-09-16T08:46:03.726Z,31.07
2017-09-16T08:51:06.942Z,23.27
2017-09-16T08:56:10.493Z,26.90
2017-09-16T09:01:14.651Z,26.13
2017-09-16T09:06:18.631Z,27.37
2017-09-16T09:11:21.867Z,32.90
2017-09-16T09:16:25.853Z,34.70
2017-09-16T09:21:29.194Z,28.73
2017-09-16T09:26:32.430Z,27.37
2017-09-16T09:31:36.474Z,24.60
2017-09-16T09:36:39.725Z,24.80
2017-09-16T09:41:43.110Z,28.03
2017-09-16T09:46:46.485Z,21.17
2017-09-16T09:51:50.467Z,19.70
2017-09-16T09:56:53.761Z,22.43
2017-09-16T10:01:56.998Z,21.80
2017-09-16T10:07:00.265Z,16.50
2017-09-16T10:12:03.492Z,15.00
2017-09-16T10:17:06.717Z,14.40
2017-09-16T10:22:09.918Z,11.30
2017-09-16T10:27:14.128Z,12.63
2017-09-16T10:32:17.337Z,11.27
2017-09-16T10:37:20.551Z,15.25
2017-09-16T10:42:24.201Z,18.20
2017-09-16T10:47:28.916Z,13.10
2017-09-16T10:52:32.512Z,11.27
2017-09-16T10:57:35.839Z,9.97
2017-09-16T11:02:39.063Z,13.00
2017-09-16T11:07:43.891Z,13.73
2017-09-16T11:12:47.908Z,11.87
2017-09-16T11:17:51.561Z,7.67
2017-09-16T11:22:54.792Z,10.57
2017-09-16T11:27:58.773Z,8.27
2017-09-16T11:33:02.086Z,6.70
2017-09-16T11:38:05.321Z,11.57
2017-09-16T11:43:09.295Z,6.37
2017-09-16T11:48:12.475Z,4.73
2017-09-16T11:53:15.710Z,3.20
2017-09-16T11:58:18.944Z,3.90
2017-09-16T12:03:22.153Z,2.47
2017-09-16T12:08:25.744Z,8.13
2017-09-16T12:13:28.916Z,4.83
2017-09-16T12:18:32.148Z,5.30
2017-09-16T12:23:35.315Z,6.30
2017-09-16T12:28:38.722Z,1.63
2017-09-16T12:33:42.706Z,3.60
2017-09-16T12:38:46.725Z,2.97
2017-09-16T12:43:50.040Z,2.90
2017-09-16T12:48:53.249Z,3.47
2017-09-16T12:53:56.466Z,2.83
2017-09-16T12:58:59.741Z,4.07
2017-09-16T13:04:02.977Z,4.33
2017-09-16T13:09:06.200Z,3.90
2017-09-16T13:14:09.424Z,2.70
2017-09-16T13:19:13.403Z,0.93
2017-09-16T13:24:16.621Z,1.50
2017-09-16T13:29:19.818Z,1.60
2017-09-16T13:34:23.054Z,1.93
2017-09-16T13:39:26.296Z,10.43
2017-09-16T13:44:29.518Z,5.57
2017-09-16T13:49:32.734Z,6.37
2017-09-16T13:54:35.969Z,3.87
2017-09-16T13:59:39.185Z,3.73
2017-09-16T14:04:42.486Z,4.33
2017-09-16T14:09:45.729Z,5.30
2017-09-16T14:14:49.751Z,7.10
2017-09-16T14:19:53.725Z,4.07
2017-09-16T14:24:56.921Z,8.70
2017-09-16T14:30:00.129Z,6.40
2017-09-16T14:35:03.695Z,3.83
2017-09-16T14:40:07.650Z,5.20
2017-09-16T14:45:11.688Z,3.37
2017-09-16T14:50:14.933Z,3.53
2017-09-16T14:55:18.148Z,4.80
2017-09-16T15:00:22.360Z,2.93
2017-09-16T15:05:26.536Z,3.83
2017-09-16T15:10:30.634Z,6.03
2017-09-16T15:15:33.867Z,3.60
2017-09-16T15:20:37.839Z,2.83
2017-09-16T15:25:41.045Z,4.10
2017-09-16T15:30:44.504Z,3.67
2017-09-16T15:35:48.527Z,2.53
2017-09-16T15:40:52.492Z,4.07
2017-09-16T15:45:55.754Z,3.40
2017-09-16T15:50:59.733Z,3.10
2017-09-16T15:56:02.966Z,3.67
2017-09-16T16:01:06.182Z,5.80
2017-09-16T16:06:09.397Z,8.23
2017-09-16T16:11:13.374Z,4.87
2017-09-16T16:16:16.633Z,4.50
2017-09-16T16:21:20.617Z,3.63
2017-09-16T16:26:23.979Z,6.10
2017-09-16T16:31:27.962Z,5.43
2017-09-16T16:36:31.181Z,7.03
2017-09-16T16:41:34.402Z,7.13
2017-09-16T16:46:37.706Z,6.00
2017-09-16T16:51:41.679Z,7.23
2017-09-16T16:56:44.944Z,3.30
2017-09-16T17:01:48.165Z,5.60
2017-09-16T17:06:52.144Z,6.03
2017-09-16T17:11:55.330Z,8.37
2017-09-16T17:16:58.661Z,6.50
2017-09-16T17:22:01.902Z,6.40
2017-09-16T17:27:05.124Z,5.03
2017-09-16T17:32:08.462Z,5.10
2017-09-16T17:37:11.705Z,4.10
2017-09-16T17:42:14.969Z,4.70
2017-09-16T17:47:18.201Z,4.87
2017-09-16T17:52:21.439Z,7.93
2017-09-16T17:57:24.751Z,12.13
2017-09-16T18:02:28.084Z,4.40
2017-09-16T18:07:31.507Z,5.70
2017-09-16T18:12:34.899Z,8.63
2017-09-16T18:17:38.902Z,4.37
2017-09-16T18:22:42.134Z,4.70
2017-09-16T18:27:46.141Z,3.90
2017-09-16T18:32:49.367Z,8.27
2017-09-16T18:37:53.363Z,9.45
2017-09-16T18:42:56.592Z,6.90
2017-09-16T18:48:00.627Z,4.20
2017-09-16T18:53:04.604Z,4.23
2017-09-16T18:58:07.945Z,5.83
2017-09-16T19:03:12.040Z,3.70
2017-09-16T19:08:15.260Z,4.10
2017-09-16T19:13:18.575Z,16.70
2017-09-16T19:18:21.801Z,11.80
2017-09-16T19:23:25.919Z,8.77
2017-09-16T19:28:29.217Z,6.53
2017-09-16T19:33:32.415Z,6.80
2017-09-16T19:38:35.666Z,7.67
2017-09-16T19:43:38.871Z,9.80
2017-09-16T19:48:42.106Z,8.63
2017-09-16T19:53:45.312Z,6.60
2017-09-16T19:58:48.625Z,7.68
2017-09-16T20:03:51.822Z,9.33
2017-09-16T20:08:55.163Z,7.97
2017-09-16T20:13:58.371Z,9.80
2017-09-16T20:19:01.611Z,10.55
2017-09-16T20:24:05.616Z,12.60
2017-09-16T20:29:08.824Z,12.30
2017-09-16T20:34:12.056Z,12.33
2017-09-16T20:39:16.085Z,13.73
2017-09-16T20:44:19.319Z,15.00
2017-09-16T20:49:22.573Z,14.70
2017-09-16T20:54:25.817Z,11.53
2017-09-16T20:59:29.082Z,9.70
2017-09-16T21:04:32.317Z,13.20
2017-09-16T21:09:36.293Z,13.10
2017-09-16T21:14:39.509Z,11.60
2017-09-16T21:19:42.738Z,11.23
2017-09-16T21:24:45.964Z,8.87
2017-09-16T21:29:50.041Z,13.20
2017-09-16T21:34:53.266Z,9.47
2017-09-16T21:39:56.495Z,12.23
2017-09-16T21:45:00.518Z,10.27
2017-09-16T21:50:04.483Z,12.87
2017-09-16T21:55:07.695Z,14.23
2017-09-16T22:00:11.039Z,12.87
2017-09-16T22:05:14.236Z,14.50
2017-09-16T22:10:17.553Z,13.37
2017-09-16T22:15:20.781Z,16.10
2017-09-16T22:20:24.757Z,11.23
2017-09-16T22:25:27.987Z,12.77
2017-09-16T22:30:31.186Z,11.60
2017-09-16T22:35:34.386Z,12.70
2017-09-16T22:40:37.812Z,13.30
2017-09-16T22:45:41.010Z,11.10
2017-09-16T22:50:44.222Z,16.70
2017-09-16T22:55:47.424Z,13.50
2017-09-16T23:00:50.880Z,13.77
2017-09-16T23:05:54.846Z,15.57
2017-09-16T23:10:58.044Z,13.70
2017-09-16T23:16:01.246Z,10.43
2017-09-16T23:21:04.467Z,19.80
2017-09-16T23:26:07.695Z,14.50
2017-09-16T23:31:10.940Z,14.00
2017-09-16T23:36:14.956Z,12.97
2017-09-16T23:41:18.939Z,12.33
2017-09-16T23:46:22.338Z,16.80
2017-09-16T23:51:25.546Z,16.17
2017-09-16T23:56:28.749Z,11.10
